sensor_id;sensor_type;location;lat;lon;timestamp;pressure;altitude;pressure_sealevel;temperature;humidity
64368;BME280;50692;53.314;-6.300;2023-08-01T00:00:16;99739.03;;;15.66;89.88
64368;BME280;50692;53.314;-6.300;2023-08-01T00:03:02;99731.88;;;15.67;89.64
64368;BME280;50692;53.314;-6.300;2023-08-01T00:05:47;99734.94;;;15.62;89.86
64368;BME280;50692;53.314;-6.300;2023-08-01T00:08:33;99730.72;;;15.59;89.74
64368;BME280;50692;53.314;-6.300;2023-08-01T00:11:19;99742.63;;;15.55;89.92
64368;BME280;50692;53.314;-6.300;2023-08-01T00:14:05;99742.63;;;15.55;89.81
64368;BME280;50692;53.314;-6.300;2023-08-01T00:16:51;99753.97;;;15.57;89.79
64368;BME280;50692;53.314;-6.300;2023-08-01T00:19:37;99749.88;;;15.44;89.98
64368;BME280;50692;53.314;-6.300;2023-08-01T00:22:22;99759.50;;;15.35;90.52
64368;BME280;50692;53.314;-6.300;2023-08-01T00:25:08;99756.63;;;15.48;89.80
64368;BME280;50692;53.314;-6.300;2023-08-01T00:27:54;99749.84;;;15.34;90.20
64368;BME280;50692;53.314;-6.300;2023-08-01T00:30:40;99754.06;;;15.37;90.08
64368;BME280;50692;53.314;-6.300;2023-08-01T00:33:26;99755.03;;;15.35;89.86
64368;BME280;50692;53.314;-6.300;2023-08-01T00:36:11;99755.88;;;15.36;89.82
64368;BME280;50692;53.314;-6.300;2023-08-01T00:38:57;99768.81;;;15.50;89.22
64368;BME280;50692;53.314;-6.300;2023-08-01T00:41:43;99760.72;;;15.62;88.32
64368;BME280;50692;53.314;-6.300;2023-08-01T00:44:29;99762.63;;;15.50;88.72
64368;BME280;50692;53.314;-6.300;2023-08-01T00:47:15;99771.78;;;15.57;88.30
64368;BME280;50692;53.314;-6.300;2023-08-01T00:50:01;99761.94;;;15.48;88.53
64368;BME280;50692;53.314;-6.300;2023-08-01T00:52:49;99763.69;;;15.68;87.75
64368;BME280;50692;53.314;-6.300;2023-08-01T00:55:36;99778.00;;;15.67;87.94
64368;BME280;50692;53.314;-6.300;2023-08-01T00:58:22;99769.88;;;15.69;87.53
64368;BME280;50692;53.314;-6.300;2023-08-01T01:01:08;99772.56;;;15.69;87.65
64368;BME280;50692;53.314;-6.300;2023-08-01T01:03:54;99763.25;;;15.63;87.61
64368;BME280;50692;53.314;-6.300;2023-08-01T01:06:52;99764.34;;;15.60;88.22
64368;BME280;50692;53.314;-6.300;2023-08-01T01:09:41;99775.72;;;15.63;87.72
64368;BME280;50692;53.314;-6.300;2023-08-01T01:12:27;99767.41;;;15.46;87.96
64368;BME280;50692;53.314;-6.300;2023-08-01T01:15:13;99765.28;;;15.40;89.12
64368;BME280;50692;53.314;-6.300;2023-08-01T01:17:59;99769.09;;;15.47;88.66
64368;BME280;50692;53.314;-6.300;2023-08-01T01:20:44;99762.22;;;15.45;88.68
64368;BME280;50692;53.314;-6.300;2023-08-01T01:23:30;99763.22;;;15.44;88.80
64368;BME280;50692;53.314;-6.300;2023-08-01T01:26:17;99757.72;;;15.45;88.41
64368;BME280;50692;53.314;-6.300;2023-08-01T01:29:08;99758.25;;;15.29;89.10
64368;BME280;50692;53.314;-6.300;2023-08-01T01:31:55;99759.94;;;15.30;88.89
64368;BME280;50692;53.314;-6.300;2023-08-01T01:34:41;99767.75;;;15.32;89.07
64368;BME280;50692;53.314;-6.300;2023-08-01T01:37:27;99754.91;;;15.47;88.05
64368;BME280;50692;53.314;-6.300;2023-08-01T01:40:13;99746.19;;;15.35;88.18
64368;BME280;50692;53.314;-6.300;2023-08-01T01:43:00;99751.56;;;15.45;87.63
64368;BME280;50692;53.314;-6.300;2023-08-01T01:45:46;99750.06;;;15.21;88.67
64368;BME280;50692;53.314;-6.300;2023-08-01T01:48:31;99748.56;;;15.28;88.05
64368;BME280;50692;53.314;-6.300;2023-08-01T01:51:19;99746.16;;;15.25;87.94
64368;BME280;50692;53.314;-6.300;2023-08-01T01:54:05;99751.47;;;15.16;88.32
64368;BME280;50692;53.314;-6.300;2023-08-01T01:56:51;99747.50;;;15.10;88.41
64368;BME280;50692;53.314;-6.300;2023-08-01T01:59:36;99755.22;;;15.13;88.21
64368;BME280;50692;53.314;-6.300;2023-08-01T02:02:22;99748.09;;;15.14;87.75
64368;BME280;50692;53.314;-6.300;2023-08-01T02:05:08;99752.59;;;14.92;89.02
64368;BME280;50692;53.314;-6.300;2023-08-01T02:07:54;99751.03;;;14.90;88.95
64368;BME280;50692;53.314;-6.300;2023-08-01T02:10:40;99757.66;;;14.95;88.61
64368;BME280;50692;53.314;-6.300;2023-08-01T02:13:26;99758.34;;;14.87;88.76
64368;BME280;50692;53.314;-6.300;2023-08-01T02:16:13;99755.28;;;14.92;88.52
64368;BME280;50692;53.314;-6.300;2023-08-01T02:18:58;99751.19;;;14.88;88.85
64368;BME280;50692;53.314;-6.300;2023-08-01T02:21:44;99758.59;;;14.84;89.15
64368;BME280;50692;53.314;-6.300;2023-08-01T02:24:30;99756.19;;;14.81;89.42
64368;BME280;50692;53.314;-6.300;2023-08-01T02:27:16;99745.13;;;14.76;89.70
64368;BME280;50692;53.314;-6.300;2023-08-01T02:30:02;99745.28;;;14.84;89.22
64368;BME280;50692;53.314;-6.300;2023-08-01T02:32:47;99739.41;;;14.81;89.81
64368;BME280;50692;53.314;-6.300;2023-08-01T02:35:33;99732.25;;;14.81;89.74
64368;BME280;50692;53.314;-6.300;2023-08-01T02:38:19;99726.09;;;14.81;89.79
64368;BME280;50692;53.314;-6.300;2023-08-01T02:41:05;99735.91;;;14.80;89.79
64368;BME280;50692;53.314;-6.300;2023-08-01T02:43:51;99740.13;;;14.83;90.03
64368;BME280;50692;53.314;-6.300;2023-08-01T02:46:37;99726.66;;;14.84;89.93
64368;BME280;50692;53.314;-6.300;2023-08-01T02:49:23;99728.34;;;14.85;90.21
64368;BME280;50692;53.314;-6.300;2023-08-01T02:52:08;99723.88;;;14.86;90.03
64368;BME280;50692;53.314;-6.300;2023-08-01T02:54:55;99722.13;;;14.75;90.94
64368;BME280;50692;53.314;-6.300;2023-08-01T02:57:41;99734.22;;;14.79;90.88
64368;BME280;50692;53.314;-6.300;2023-08-01T03:00:27;99733.94;;;14.82;90.48
64368;BME280;50692;53.314;-6.300;2023-08-01T03:03:13;99732.97;;;14.83;90.86
64368;BME280;50692;53.314;-6.300;2023-08-01T03:06:00;99726.66;;;14.84;90.97
64368;BME280;50692;53.314;-6.300;2023-08-01T03:08:46;99722.84;;;14.77;91.08
64368;BME280;50692;53.314;-6.300;2023-08-01T03:11:36;99731.41;;;14.81;91.49
64368;BME280;50692;53.314;-6.300;2023-08-01T03:14:23;99725.50;;;14.77;91.97
64368;BME280;50692;53.314;-6.300;2023-08-01T03:17:09;99742.56;;;14.75;92.34
64368;BME280;50692;53.314;-6.300;2023-08-01T03:19:55;99736.00;;;14.79;92.24
64368;BME280;50692;53.314;-6.300;2023-08-01T03:22:41;99735.91;;;14.80;92.11
64368;BME280;50692;53.314;-6.300;2023-08-01T03:25:28;99738.81;;;14.77;92.57
64368;BME280;50692;53.314;-6.300;2023-08-01T03:28:14;99733.44;;;14.68;93.14
64368;BME280;50692;53.314;-6.300;2023-08-01T03:31:00;99738.75;;;14.68;93.28
64368;BME280;50692;53.314;-6.300;2023-08-01T03:33:45;99730.66;;;14.69;93.32
64368;BME280;50692;53.314;-6.300;2023-08-01T03:36:31;99733.31;;;14.69;93.42
64368;BME280;50692;53.314;-6.300;2023-08-01T03:39:17;99728.13;;;14.68;93.64
64368;BME280;50692;53.314;-6.300;2023-08-01T03:42:03;99684.38;;;14.39;93.91
64368;BME280;50692;53.314;-6.300;2023-08-01T03:44:49;99723.34;;;14.61;94.38
64368;BME280;50692;53.314;-6.300;2023-08-01T03:47:35;99728.06;;;14.58;94.74
64368;BME280;50692;53.314;-6.300;2023-08-01T03:50:21;99715.72;;;14.57;94.82
64368;BME280;50692;53.314;-6.300;2023-08-01T03:53:07;99732.28;;;14.60;94.89
64368;BME280;50692;53.314;-6.300;2023-08-01T03:55:52;99741.09;;;14.61;94.62
64368;BME280;50692;53.314;-6.300;2023-08-01T03:58:40;99742.38;;;14.46;95.61
64368;BME280;50692;53.314;-6.300;2023-08-01T04:01:25;99737.44;;;14.41;96.26
64368;BME280;50692;53.314;-6.300;2023-08-01T04:04:11;99750.47;;;14.44;96.28
64368;BME280;50692;53.314;-6.300;2023-08-01T04:06:57;99755.41;;;14.49;96.25
64368;BME280;50692;53.314;-6.300;2023-08-01T04:09:43;99749.72;;;14.53;95.72
64368;BME280;50692;53.314;-6.300;2023-08-01T04:12:31;99740.44;;;14.48;96.04
64368;BME280;50692;53.314;-6.300;2023-08-01T04:15:17;99745.75;;;14.48;96.42
64368;BME280;50692;53.314;-6.300;2023-08-01T04:18:03;99758.44;;;14.55;95.56
64368;BME280;50692;53.314;-6.300;2023-08-01T04:20:49;99760.66;;;14.39;96.53
64368;BME280;50692;53.314;-6.300;2023-08-01T04:23:35;99755.72;;;14.34;96.83
64368;BME280;50692;53.314;-6.300;2023-08-01T04:26:20;99773.78;;;14.20;98.13
64368;BME280;50692;53.314;-6.300;2023-08-01T04:29:06;99763.44;;;14.37;97.04
64368;BME280;50692;53.314;-6.300;2023-08-01T04:31:52;99778.28;;;14.51;96.28
64368;BME280;50692;53.314;-6.300;2023-08-01T04:34:38;99771.00;;;14.53;96.12
64368;BME280;50692;53.314;-6.300;2023-08-01T04:37:23;99770.16;;;14.53;95.95
64368;BME280;50692;53.314;-6.300;2023-08-01T04:40:11;99778.13;;;14.53;95.97
64368;BME280;50692;53.314;-6.300;2023-08-01T04:42:57;99769.47;;;14.51;96.13
64368;BME280;50692;53.314;-6.300;2023-08-01T04:45:43;99764.84;;;14.53;95.93
64368;BME280;50692;53.314;-6.300;2023-08-01T04:48:28;99769.78;;;14.46;96.38
64368;BME280;50692;53.314;-6.300;2023-08-01T04:51:14;99758.16;;;14.58;95.74
64368;BME280;50692;53.314;-6.300;2023-08-01T04:54:00;99770.63;;;14.58;95.27
64368;BME280;50692;53.314;-6.300;2023-08-01T04:56:47;99779.13;;;14.52;96.18
64368;BME280;50692;53.314;-6.300;2023-08-01T04:59:33;99782.81;;;14.60;95.74
64368;BME280;50692;53.314;-6.300;2023-08-01T05:02:19;99789.88;;;14.71;94.73
64368;BME280;50692;53.314;-6.300;2023-08-01T05:05:05;99795.16;;;14.61;95.20
64368;BME280;50692;53.314;-6.300;2023-08-01T05:07:51;99804.41;;;14.67;95.00
64368;BME280;50692;53.314;-6.300;2023-08-01T05:10:37;99791.59;;;14.40;96.71
64368;BME280;50692;53.314;-6.300;2023-08-01T05:13:23;99793.31;;;14.30;97.53
64368;BME280;50692;53.314;-6.300;2023-08-01T05:16:08;99794.03;;;14.32;97.68
64368;BME280;50692;53.314;-6.300;2023-08-01T05:18:54;99796.28;;;14.48;96.59
64368;BME280;50692;53.314;-6.300;2023-08-01T05:21:40;99793.38;;;14.51;96.75
64368;BME280;50692;53.314;-6.300;2023-08-01T05:24:26;99799.00;;;14.57;96.17
64368;BME280;50692;53.314;-6.300;2023-08-01T05:27:12;99781.38;;;14.56;96.05
64368;BME280;50692;53.314;-6.300;2023-08-01T05:29:58;99792.16;;;14.55;96.42
64368;BME280;50692;53.314;-6.300;2023-08-01T05:32:43;99790.06;;;14.58;96.05
64368;BME280;50692;53.314;-6.300;2023-08-01T05:35:30;99788.25;;;14.59;96.03
64368;BME280;50692;53.314;-6.300;2023-08-01T05:38:16;99785.34;;;14.62;95.63
64368;BME280;50692;53.314;-6.300;2023-08-01T05:41:02;99785.59;;;14.59;95.96
64368;BME280;50692;53.314;-6.300;2023-08-01T05:43:49;99798.66;;;14.62;96.16
64368;BME280;50692;53.314;-6.300;2023-08-01T05:46:35;99799.81;;;14.69;95.85
64368;BME280;50692;53.314;-6.300;2023-08-01T05:49:21;99791.56;;;14.72;95.67
64368;BME280;50692;53.314;-6.300;2023-08-01T05:52:07;99790.25;;;14.87;94.75
64368;BME280;50692;53.314;-6.300;2023-08-01T05:54:53;99782.34;;;14.76;95.16
64368;BME280;50692;53.314;-6.300;2023-08-01T05:57:38;99792.75;;;14.79;95.48
64368;BME280;50692;53.314;-6.300;2023-08-01T06:00:24;99789.53;;;14.85;95.42
64368;BME280;50692;53.314;-6.300;2023-08-01T06:03:10;99796.34;;;14.78;96.01
64368;BME280;50692;53.314;-6.300;2023-08-01T06:05:56;99786.56;;;14.79;96.35
64368;BME280;50692;53.314;-6.300;2023-08-01T06:08:42;99790.78;;;14.81;96.20
64368;BME280;50692;53.314;-6.300;2023-08-01T06:11:27;99788.38;;;14.78;95.86
64368;BME280;50692;53.314;-6.300;2023-08-01T06:14:14;99794.47;;;14.90;95.70
64368;BME280;50692;53.314;-6.300;2023-08-01T06:16:59;99796.59;;;14.96;95.41
64368;BME280;50692;53.314;-6.300;2023-08-01T06:19:45;99798.16;;;14.99;94.99
64368;BME280;50692;53.314;-6.300;2023-08-01T06:22:31;99796.66;;;15.06;94.86
64368;BME280;50692;53.314;-6.300;2023-08-01T06:25:17;99800.16;;;15.06;94.43
64368;BME280;50692;53.314;-6.300;2023-08-01T06:28:03;99797.81;;;15.13;94.29
64368;BME280;50692;53.314;-6.300;2023-08-01T06:30:49;99794.63;;;15.19;94.20
64368;BME280;50692;53.314;-6.300;2023-08-01T06:33:34;99800.03;;;15.39;93.02
64368;BME280;50692;53.314;-6.300;2023-08-01T06:36:20;99797.78;;;15.34;93.61
64368;BME280;50692;53.314;-6.300;2023-08-01T06:39:06;99800.59;;;15.42;93.11
64368;BME280;50692;53.314;-6.300;2023-08-01T06:41:52;99796.47;;;15.59;91.82
64368;BME280;50692;53.314;-6.300;2023-08-01T06:44:37;99796.88;;;15.54;92.34
64368;BME280;50692;53.314;-6.300;2023-08-01T06:47:23;99798.59;;;15.65;91.74
64368;BME280;50692;53.314;-6.300;2023-08-01T06:50:09;99802.63;;;15.59;91.85
64368;BME280;50692;53.314;-6.300;2023-08-01T06:52:55;99803.66;;;15.68;91.49
64368;BME280;50692;53.314;-6.300;2023-08-01T06:55:41;99803.84;;;15.76;90.84
64368;BME280;50692;53.314;-6.300;2023-08-01T06:58:27;99812.56;;;15.98;90.48
64368;BME280;50692;53.314;-6.300;2023-08-01T07:01:13;99805.72;;;16.05;89.96
64368;BME280;50692;53.314;-6.300;2023-08-01T07:03:58;99805.13;;;16.11;89.82
64368;BME280;50692;53.314;-6.300;2023-08-01T07:06:44;99806.44;;;16.26;89.42
64368;BME280;50692;53.314;-6.300;2023-08-01T07:09:31;99800.53;;;16.23;88.32
64368;BME280;50692;53.314;-6.300;2023-08-01T07:12:17;99815.13;;;16.28;87.80
64368;BME280;50692;53.314;-6.300;2023-08-01T07:15:03;99816.78;;;16.29;87.27
64368;BME280;50692;53.314;-6.300;2023-08-01T07:17:49;99809.78;;;16.28;87.29
64368;BME280;50692;53.314;-6.300;2023-08-01T07:20:35;99826.34;;;16.42;87.20
64368;BME280;50692;53.314;-6.300;2023-08-01T07:23:20;99808.53;;;16.52;86.84
64368;BME280;50692;53.314;-6.300;2023-08-01T07:26:06;99815.25;;;16.75;85.93
64368;BME280;50692;53.314;-6.300;2023-08-01T07:28:52;99826.31;;;16.90;84.47
64368;BME280;50692;53.314;-6.300;2023-08-01T07:31:38;99820.44;;;16.96;83.83
64368;BME280;50692;53.314;-6.300;2023-08-01T07:34:24;99818.03;;;16.93;83.51
64368;BME280;50692;53.314;-6.300;2023-08-01T07:37:10;99824.91;;;17.06;83.16
64368;BME280;50692;53.314;-6.300;2023-08-01T07:39:56;99820.41;;;17.06;82.54
64368;BME280;50692;53.314;-6.300;2023-08-01T07:42:42;99842.31;;;17.10;81.70
64368;BME280;50692;53.314;-6.300;2023-08-01T07:45:29;99827.97;;;17.20;81.51
64368;BME280;50692;53.314;-6.300;2023-08-01T07:48:17;99817.25;;;17.30;80.60
64368;BME280;50692;53.314;-6.300;2023-08-01T07:51:03;99815.81;;;17.36;79.79
64368;BME280;50692;53.314;-6.300;2023-08-01T07:53:52;99818.72;;;17.42;79.03
64368;BME280;50692;53.314;-6.300;2023-08-01T07:56:38;99817.88;;;17.52;78.34
64368;BME280;50692;53.314;-6.300;2023-08-01T07:59:24;99810.78;;;17.60;78.72
64368;BME280;50692;53.314;-6.300;2023-08-01T08:02:10;99820.13;;;17.74;77.90
64368;BME280;50692;53.314;-6.300;2023-08-01T08:04:56;99822.63;;;17.85;77.33
64368;BME280;50692;53.314;-6.300;2023-08-01T08:07:42;99811.06;;;17.94;77.20
64368;BME280;50692;53.314;-6.300;2023-08-01T08:10:27;99814.41;;;17.96;77.03
64368;BME280;50692;53.314;-6.300;2023-08-01T08:13:13;99815.19;;;18.07;75.94
64368;BME280;50692;53.314;-6.300;2023-08-01T08:15:59;99818.66;;;17.89;76.97
64368;BME280;50692;53.314;-6.300;2023-08-01T08:18:45;99815.47;;;18.04;75.72
64368;BME280;50692;53.314;-6.300;2023-08-01T08:21:31;99817.41;;;18.11;76.38
64368;BME280;50692;53.314;-6.300;2023-08-01T08:24:16;99809.91;;;18.15;75.85
64368;BME280;50692;53.314;-6.300;2023-08-01T08:27:02;99810.91;;;18.14;75.35
64368;BME280;50692;53.314;-6.300;2023-08-01T08:29:48;99806.03;;;18.27;75.16
64368;BME280;50692;53.314;-6.300;2023-08-01T08:32:35;99799.66;;;18.46;74.42
64368;BME280;50692;53.314;-6.300;2023-08-01T08:35:21;99799.03;;;18.70;73.26
64368;BME280;50692;53.314;-6.300;2023-08-01T08:38:07;99804.09;;;18.73;72.48
64368;BME280;50692;53.314;-6.300;2023-08-01T08:41:15;99797.28;;;18.79;70.18
64368;BME280;50692;53.314;-6.300;2023-08-01T08:44:07;99790.56;;;18.75;70.87
64368;BME280;50692;53.314;-6.300;2023-08-01T08:46:55;99793.44;;;19.07;69.83
64368;BME280;50692;53.314;-6.300;2023-08-01T08:49:45;99791.28;;;19.11;69.11
64368;BME280;50692;53.314;-6.300;2023-08-01T08:52:32;99794.16;;;19.09;69.21
64368;BME280;50692;53.314;-6.300;2023-08-01T08:55:19;99798.72;;;19.17;69.42
64368;BME280;50692;53.314;-6.300;2023-08-01T08:58:08;99794.31;;;19.16;68.49
64368;BME280;50692;53.314;-6.300;2023-08-01T09:00:57;99786.34;;;18.98;68.26
64368;BME280;50692;53.314;-6.300;2023-08-01T09:03:43;99778.31;;;19.24;67.95
64368;BME280;50692;53.314;-6.300;2023-08-01T09:06:32;99786.41;;;19.67;67.40
64368;BME280;50692;53.314;-6.300;2023-08-01T09:09:20;99773.59;;;19.60;66.01
64368;BME280;50692;53.314;-6.300;2023-08-01T09:12:09;99773.34;;;19.80;64.78
64368;BME280;50692;53.314;-6.300;2023-08-01T09:14:56;99781.81;;;20.09;63.98
64368;BME280;50692;53.314;-6.300;2023-08-01T09:17:52;99771.09;;;20.18;63.52
64368;BME280;50692;53.314;-6.300;2023-08-01T09:20:43;99772.59;;;20.36;63.46
64368;BME280;50692;53.314;-6.300;2023-08-01T09:23:30;99754.69;;;20.45;62.95
64368;BME280;50692;53.314;-6.300;2023-08-01T09:26:17;99767.44;;;20.68;60.56
64368;BME280;50692;53.314;-6.300;2023-08-01T09:29:04;99778.50;;;20.81;60.38
64368;BME280;50692;53.314;-6.300;2023-08-01T09:31:50;99773.06;;;21.05;60.22
64368;BME280;50692;53.314;-6.300;2023-08-01T09:34:36;99762.13;;;21.15;59.29
64368;BME280;50692;53.314;-6.300;2023-08-01T09:37:22;99759.44;;;21.15;60.03
64368;BME280;50692;53.314;-6.300;2023-08-01T09:40:09;99750.84;;;21.20;59.57
64368;BME280;50692;53.314;-6.300;2023-08-01T09:43:01;99757.38;;;21.34;58.90
64368;BME280;50692;53.314;-6.300;2023-08-01T09:45:53;99775.53;;;21.23;57.65
64368;BME280;50692;53.314;-6.300;2023-08-01T09:48:39;99767.31;;;21.17;58.23
64368;BME280;50692;53.314;-6.300;2023-08-01T09:51:25;99765.09;;;21.37;58.04
64368;BME280;50692;53.314;-6.300;2023-08-01T09:54:11;99760.84;;;21.50;57.18
64368;BME280;50692;53.314;-6.300;2023-08-01T09:56:57;99754.53;;;21.66;57.00
64368;BME280;50692;53.314;-6.300;2023-08-01T09:59:43;99760.72;;;21.75;55.99
64368;BME280;50692;53.314;-6.300;2023-08-01T10:02:31;99765.03;;;21.84;55.55
64368;BME280;50692;53.314;-6.300;2023-08-01T10:05:19;99759.56;;;22.00;55.30
64368;BME280;50692;53.314;-6.300;2023-08-01T10:08:06;99748.25;;;22.05;55.40
64368;BME280;50692;53.314;-6.300;2023-08-01T10:10:52;99751.44;;;22.09;55.78
64368;BME280;50692;53.314;-6.300;2023-08-01T10:13:43;99750.47;;;22.01;55.76
64368;BME280;50692;53.314;-6.300;2023-08-01T10:16:29;99760.50;;;21.85;55.39
64368;BME280;50692;53.314;-6.300;2023-08-01T10:19:16;99756.81;;;21.86;55.40
64368;BME280;50692;53.314;-6.300;2023-08-01T10:22:04;99757.22;;;21.74;55.75
64368;BME280;50692;53.314;-6.300;2023-08-01T10:24:52;99763.66;;;21.88;55.12
64368;BME280;50692;53.314;-6.300;2023-08-01T10:27:38;99757.34;;;22.35;53.38
64368;BME280;50692;53.314;-6.300;2023-08-01T10:30:28;99750.53;;;22.77;52.66
64368;BME280;50692;53.314;-6.300;2023-08-01T10:33:15;99749.91;;;22.90;52.03
64368;BME280;50692;53.314;-6.300;2023-08-01T10:36:14;99746.53;;;22.96;50.58
64368;BME280;50692;53.314;-6.300;2023-08-01T10:39:01;99749.59;;;22.93;51.68
64368;BME280;50692;53.314;-6.300;2023-08-01T10:41:57;99761.31;;;22.77;50.96
64368;BME280;50692;53.314;-6.300;2023-08-01T10:44:47;99753.22;;;22.77;52.29
64368;BME280;50692;53.314;-6.300;2023-08-01T10:47:32;99760.09;;;22.65;52.99
64368;BME280;50692;53.314;-6.300;2023-08-01T10:50:19;99744.75;;;22.50;52.70
64368;BME280;50692;53.314;-6.300;2023-08-01T10:53:07;99740.59;;;22.78;52.75
64368;BME280;50692;53.314;-6.300;2023-08-01T10:55:54;99741.31;;;22.94;51.38
64368;BME280;50692;53.314;-6.300;2023-08-01T10:58:39;99739.84;;;23.07;51.95
64368;BME280;50692;53.314;-6.300;2023-08-01T11:01:25;99753.22;;;23.15;51.98
64368;BME280;50692;53.314;-6.300;2023-08-01T11:04:15;99754.41;;;23.27;51.38
64368;BME280;50692;53.314;-6.300;2023-08-01T11:07:01;99759.44;;;23.01;51.92
64368;BME280;50692;53.314;-6.300;2023-08-01T11:09:46;99752.59;;;22.75;50.63
64368;BME280;50692;53.314;-6.300;2023-08-01T11:12:40;99747.66;;;22.64;50.97
64368;BME280;50692;53.314;-6.300;2023-08-01T11:15:26;99745.91;;;22.71;52.37
64368;BME280;50692;53.314;-6.300;2023-08-01T11:18:12;99740.38;;;23.02;51.70
64368;BME280;50692;53.314;-6.300;2023-08-01T11:20:58;99745.59;;;23.18;51.81
64368;BME280;50692;53.314;-6.300;2023-08-01T11:23:44;99752.28;;;23.22;51.34
64368;BME280;50692;53.314;-6.300;2023-08-01T11:26:30;99749.13;;;23.19;51.00
64368;BME280;50692;53.314;-6.300;2023-08-01T11:29:17;99757.56;;;23.31;50.45
64368;BME280;50692;53.314;-6.300;2023-08-01T11:32:03;99752.56;;;23.42;48.89
64368;BME280;50692;53.314;-6.300;2023-08-01T11:34:50;99744.69;;;23.77;48.79
64368;BME280;50692;53.314;-6.300;2023-08-01T11:37:36;99723.84;;;23.71;49.15
64368;BME280;50692;53.314;-6.300;2023-08-01T11:40:22;99735.19;;;23.66;49.77
64368;BME280;50692;53.314;-6.300;2023-08-01T11:43:08;99735.47;;;23.57;49.41
64368;BME280;50692;53.314;-6.300;2023-08-01T11:45:56;99738.78;;;23.37;50.18
64368;BME280;50692;53.314;-6.300;2023-08-01T11:48:45;99726.06;;;23.02;51.34
64368;BME280;50692;53.314;-6.300;2023-08-01T11:51:41;99728.28;;;23.42;51.42
64368;BME280;50692;53.314;-6.300;2023-08-01T11:54:28;99738.09;;;24.01;49.94
64368;BME280;50692;53.314;-6.300;2023-08-01T11:57:13;99735.09;;;24.39;47.25
64368;BME280;50692;53.314;-6.300;2023-08-01T11:59:59;99721.09;;;24.78;45.63
64368;BME280;50692;53.314;-6.300;2023-08-01T12:02:45;99716.22;;;25.23;43.55
64368;BME280;50692;53.314;-6.300;2023-08-01T12:05:31;99703.84;;;25.55;41.70
64368;BME280;50692;53.314;-6.300;2023-08-01T12:08:17;99702.19;;;25.54;42.20
64368;BME280;50692;53.314;-6.300;2023-08-01T12:11:03;99692.72;;;25.85;42.52
64368;BME280;50692;53.314;-6.300;2023-08-01T12:14:09;99675.03;;;25.96;41.90
64368;BME280;50692;53.314;-6.300;2023-08-01T12:16:56;99680.59;;;25.74;42.28
64368;BME280;50692;53.314;-6.300;2023-08-01T12:19:41;99675.50;;;25.38;42.53
64368;BME280;50692;53.314;-6.300;2023-08-01T12:22:27;99673.41;;;25.33;43.56
64368;BME280;50692;53.314;-6.300;2023-08-01T12:25:13;99673.56;;;25.80;43.15
64368;BME280;50692;53.314;-6.300;2023-08-01T12:27:59;99679.81;;;25.87;43.00
64368;BME280;50692;53.314;-6.300;2023-08-01T12:30:45;99674.63;;;25.79;43.20
64368;BME280;50692;53.314;-6.300;2023-08-01T12:33:32;99663.59;;;25.87;43.11
64368;BME280;50692;53.314;-6.300;2023-08-01T12:36:18;99663.13;;;25.77;43.44
64368;BME280;50692;53.314;-6.300;2023-08-01T12:39:04;99659.53;;;25.56;43.81
64368;BME280;50692;53.314;-6.300;2023-08-01T12:41:56;99662.44;;;25.07;43.90
64368;BME280;50692;53.314;-6.300;2023-08-01T12:44:41;99650.56;;;24.67;44.07
64368;BME280;50692;53.314;-6.300;2023-08-01T12:47:27;99647.09;;;25.14;43.65
64368;BME280;50692;53.314;-6.300;2023-08-01T12:50:13;99638.31;;;25.60;42.83
64368;BME280;50692;53.314;-6.300;2023-08-01T12:52:59;99641.09;;;25.93;42.39
64368;BME280;50692;53.314;-6.300;2023-08-01T12:55:49;99628.41;;;25.94;42.33
64368;BME280;50692;53.314;-6.300;2023-08-01T12:58:35;99630.88;;;25.82;42.74
64368;BME280;50692;53.314;-6.300;2023-08-01T13:01:21;99640.16;;;25.53;42.44
64368;BME280;50692;53.314;-6.300;2023-08-01T13:04:07;99641.28;;;25.17;43.17
64368;BME280;50692;53.314;-6.300;2023-08-01T13:06:52;99635.56;;;24.99;43.81
64368;BME280;50692;53.314;-6.300;2023-08-01T13:09:38;99650.44;;;24.81;44.16
64368;BME280;50692;53.314;-6.300;2023-08-01T13:12:24;99648.22;;;24.57;44.88
64368;BME280;50692;53.314;-6.300;2023-08-01T13:15:10;99642.94;;;24.42;44.96
64368;BME280;50692;53.314;-6.300;2023-08-01T13:17:56;99640.97;;;24.29;45.23
64368;BME280;50692;53.314;-6.300;2023-08-01T13:20:42;99616.63;;;24.01;45.82
64368;BME280;50692;53.314;-6.300;2023-08-01T13:23:28;99604.69;;;23.89;46.92
64368;BME280;50692;53.314;-6.300;2023-08-01T13:26:14;99598.47;;;23.88;47.40
64368;BME280;50692;53.314;-6.300;2023-08-01T13:29:00;99594.31;;;23.86;48.36
64368;BME280;50692;53.314;-6.300;2023-08-01T13:31:46;99592.09;;;23.75;48.08
64368;BME280;50692;53.314;-6.300;2023-08-01T13:34:33;99599.13;;;23.69;48.31
64368;BME280;50692;53.314;-6.300;2023-08-01T13:37:18;99610.50;;;23.86;48.70
64368;BME280;50692;53.314;-6.300;2023-08-01T13:40:05;99611.84;;;23.75;49.23
64368;BME280;50692;53.314;-6.300;2023-08-01T13:42:51;99612.78;;;23.67;48.85
64368;BME280;50692;53.314;-6.300;2023-08-01T13:45:37;99625.09;;;23.55;49.34
64368;BME280;50692;53.314;-6.300;2023-08-01T13:48:22;99633.91;;;23.42;50.09
64368;BME280;50692;53.314;-6.300;2023-08-01T13:51:08;99644.16;;;23.32;50.53
64368;BME280;50692;53.314;-6.300;2023-08-01T13:53:54;99632.59;;;23.38;50.53
64368;BME280;50692;53.314;-6.300;2023-08-01T13:56:40;99623.72;;;23.23;50.49
64368;BME280;50692;53.314;-6.300;2023-08-01T13:59:26;99617.66;;;23.00;50.94
64368;BME280;50692;53.314;-6.300;2023-08-01T14:02:12;99610.56;;;22.98;51.95
64368;BME280;50692;53.314;-6.300;2023-08-01T14:04:59;99600.81;;;22.97;52.16
64368;BME280;50692;53.314;-6.300;2023-08-01T14:07:45;99604.09;;;22.93;52.85
64368;BME280;50692;53.314;-6.300;2023-08-01T14:10:31;99608.34;;;22.72;53.24
64368;BME280;50692;53.314;-6.300;2023-08-01T14:13:17;99601.84;;;22.52;53.24
64368;BME280;50692;53.314;-6.300;2023-08-01T14:16:02;99605.66;;;22.43;54.09
64368;BME280;50692;53.314;-6.300;2023-08-01T14:18:48;99599.91;;;22.61;54.00
64368;BME280;50692;53.314;-6.300;2023-08-01T14:21:34;99599.44;;;22.57;54.38
64368;BME280;50692;53.314;-6.300;2023-08-01T14:24:22;99591.25;;;22.50;55.24
64368;BME280;50692;53.314;-6.300;2023-08-01T14:27:08;99595.81;;;22.35;54.46
64368;BME280;50692;53.314;-6.300;2023-08-01T14:29:54;99593.38;;;22.40;54.72